Time;durP1;ratioP1;P1;durP2;ratioP2;P2;SDS_P1;SDS_P2;PMS_P1;PMS_P2;Temp;Humidity;BMP_temperature;BMP_pressure;BME280_temperature;BME280_humidity;BME280_pressure;Samples;Min_cycle;Max_cycle;Signal;HPM_P1;HPM_P2
2023/09/25 00:01:16;;;;;;;8.52;6.03;;;;;;;;;;6097782;23;20309;-75
2023/09/25 00:03:42;;;;;;;11.88;7.07;;;;;;;;;;6097751;23;20006;-74
2023/09/25 00:06:08;;;;;;;10.95;6.45;;;;;;;;;;6097441;23;20012;-74
2023/09/25 00:08:34;;;;;;;8.57;6.32;;;;;;;;;;6097598;23;20014;-74
2023/09/25 00:11:00;;;;;;;12.20;6.93;;;;;;;;;;6097617;23;20481;-74
2023/09/25 00:13:26;;;;;;;11.23;6.53;;;;;;;;;;6097477;23;20053;-72
2023/09/25 00:15:52;;;;;;;9.98;7.25;;;;;;;;;;6097600;23;20026;-75
2023/09/25 00:18:18;;;;;;;11.23;7.10;;;;;;;;;;6098118;23;20018;-75
2023/09/25 00:20:43;;;;;;;10.43;6.68;;;;;;;;;;6124103;23;20548;-74
2023/09/25 00:23:09;;;;;;;14.85;7.57;;;;;;;;;;6098520;23;20383;-73
2023/09/25 00:25:34;;;;;;;8.70;6.93;;;;;;;;;;6099368;23;20344;-73
2023/09/25 00:28:01;;;;;;;11.73;6.95;;;;;;;;;;6125670;23;20009;-74
2023/09/25 00:30:27;;;;;;;10.10;6.90;;;;;;;;;;6098882;23;20089;-73
2023/09/25 00:32:52;;;;;;;12.60;7.53;;;;;;;;;;6098074;23;20044;-73
2023/09/25 00:35:20;;;;;;;13.00;7.32;;;;;;;;;;6098818;23;20363;-75
2023/09/25 00:37:47;;;;;;;10.98;7.22;;;;;;;;;;6098731;23;20010;-74
2023/09/25 00:40:14;;;;;;;8.93;6.97;;;;;;;;;;6098110;23;20021;-74
2023/09/25 00:42:46;;;;;;;10.48;6.90;;;;;;;;;;6097139;23;20009;-74
2023/09/25 00:45:12;;;;;;;13.75;6.55;;;;;;;;;;6123163;23;20032;-75
2023/09/25 00:47:41;;;;;;;9.75;6.57;;;;;;;;;;6097099;23;20398;-75
2023/09/25 00:50:08;;;;;;;12.82;6.82;;;;;;;;;;6097136;23;20006;-74
2023/09/25 00:52:34;;;;;;;12.65;6.63;;;;;;;;;;6097212;23;20018;-73
2023/09/25 00:55:01;;;;;;;11.85;6.88;;;;;;;;;;6097150;23;20009;-73
2023/09/25 00:57:28;;;;;;;10.57;6.20;;;;;;;;;;6123501;23;20030;-75
2023/09/25 00:59:55;;;;;;;15.32;7.28;;;;;;;;;;6097782;23;20060;-73
2023/09/25 01:02:20;;;;;;;8.02;6.22;;;;;;;;;;6124511;23;20056;-72
2023/09/25 01:04:47;;;;;;;11.68;6.72;;;;;;;;;;6097613;23;20006;-75
2023/09/25 01:07:13;;;;;;;10.65;6.93;;;;;;;;;;6097683;23;20013;-74
2023/09/25 01:09:39;;;;;;;9.38;6.63;;;;;;;;;;6097133;23;20343;-74
2023/09/25 01:12:05;;;;;;;12.60;6.63;;;;;;;;;;6123289;23;20005;-75
2023/09/25 01:14:31;;;;;;;13.25;7.32;;;;;;;;;;6098106;23;20006;-75
2023/09/25 01:16:57;;;;;;;8.40;6.40;;;;;;;;;;6098452;23;20564;-75
2023/09/25 01:19:22;;;;;;;10.55;6.43;;;;;;;;;;6097848;23;20418;-73
2023/09/25 01:21:48;;;;;;;7.85;6.03;;;;;;;;;;6097252;23;20002;-73
2023/09/25 01:24:13;;;;;;;9.15;6.18;;;;;;;;;;6098927;23;20371;-73
2023/09/25 01:26:39;;;;;;;8.98;6.55;;;;;;;;;;6099045;23;20407;-75
2023/09/25 01:29:05;;;;;;;11.57;6.55;;;;;;;;;;6099005;23;20016;-74
2023/09/25 01:31:30;;;;;;;8.63;6.43;;;;;;;;;;6098596;23;20328;-75
2023/09/25 01:33:56;;;;;;;9.68;7.00;;;;;;;;;;6096925;23;20132;-75
2023/09/25 01:36:22;;;;;;;11.10;7.32;;;;;;;;;;6097163;23;20013;-73
2023/09/25 01:38:47;;;;;;;8.63;5.90;;;;;;;;;;6096665;23;20072;-74
2023/09/25 01:41:16;;;;;;;11.48;6.85;;;;;;;;;;6096627;23;20010;-75
2023/09/25 01:43:44;;;;;;;10.57;6.57;;;;;;;;;;6122424;23;20002;-75
2023/09/25 01:46:10;;;;;;;8.88;6.70;;;;;;;;;;6097071;23;20005;-73
2023/09/25 01:48:36;;;;;;;10.27;6.45;;;;;;;;;;6122463;23;20031;-73
2023/09/25 01:51:11;;;;;;;7.95;5.65;;;;;;;;;;6098398;23;20038;-73
2023/09/25 01:53:37;;;;;;;11.55;6.88;;;;;;;;;;6100636;23;20013;-73
2023/09/25 01:56:11;;;;;;;9.93;6.80;;;;;;;;;;6103640;23;20085;-73
2023/09/25 01:58:37;;;;;;;11.05;6.65;;;;;;;;;;6103671;23;20406;-74
2023/09/25 02:01:02;;;;;;;12.60;7.28;;;;;;;;;;6097977;23;20006;-73
2023/09/25 02:03:28;;;;;;;9.68;6.47;;;;;;;;;;6096423;23;20021;-73
2023/09/25 02:05:57;;;;;;;13.57;6.50;;;;;;;;;;6124015;23;20086;-73
2023/09/25 02:08:22;;;;;;;10.45;7.00;;;;;;;;;;6096642;23;20017;-74
2023/09/25 02:10:48;;;;;;;12.70;6.75;;;;;;;;;;6095958;23;20009;-74
2023/09/25 02:13:13;;;;;;;10.20;6.53;;;;;;;;;;6096681;23;20424;-73
2023/09/25 02:15:40;;;;;;;7.57;5.85;;;;;;;;;;6095957;23;20033;-74
2023/09/25 02:18:05;;;;;;;10.40;7.82;;;;;;;;;;6096578;23;20017;-73
2023/09/25 02:20:31;;;;;;;7.68;5.85;;;;;;;;;;6096068;23;20052;-74
2023/09/25 02:22:56;;;;;;;9.68;6.70;;;;;;;;;;6096406;23;20002;-73
2023/09/25 02:25:23;;;;;;;8.27;6.05;;;;;;;;;;6096202;23;20013;-73
2023/09/25 02:27:49;;;;;;;8.93;6.22;;;;;;;;;;6121925;23;20006;-73
2023/09/25 02:30:15;;;;;;;9.45;6.65;;;;;;;;;;6096364;23;20017;-73
2023/09/25 02:32:44;;;;;;;7.95;6.30;;;;;;;;;;6095993;23;20010;-73
2023/09/25 02:35:11;;;;;;;8.38;6.40;;;;;;;;;;6096315;23;20012;-74
2023/09/25 02:37:37;;;;;;;9.98;7.10;;;;;;;;;;6122300;23;20343;-74
2023/09/25 02:40:13;;;;;;;9.18;7.10;;;;;;;;;;6122101;23;20060;-73
2023/09/25 02:42:39;;;;;;;9.80;6.97;;;;;;;;;;6095889;23;20288;-73
2023/09/25 02:45:05;;;;;;;9.82;6.38;;;;;;;;;;6122045;23;20076;-75
2023/09/25 02:47:30;;;;;;;8.57;5.70;;;;;;;;;;6096103;23;20608;-73
2023/09/25 02:49:56;;;;;;;9.02;6.03;;;;;;;;;;6096169;23;20018;-73
2023/09/25 02:52:21;;;;;;;12.85;6.90;;;;;;;;;;6096145;23;20010;-73
2023/09/25 02:54:47;;;;;;;9.00;6.82;;;;;;;;;;6095757;23;20006;-74
2023/09/25 02:57:12;;;;;;;10.75;6.22;;;;;;;;;;6096336;23;20008;-74
2023/09/25 02:59:38;;;;;;;10.70;6.32;;;;;;;;;;6095820;23;20017;-74
2023/09/25 03:02:04;;;;;;;10.30;6.90;;;;;;;;;;6096488;23;20180;-74
2023/09/25 03:04:29;;;;;;;9.98;6.28;;;;;;;;;;6095739;23;20061;-74
2023/09/25 03:06:56;;;;;;;11.77;7.38;;;;;;;;;;6096188;23;20006;-73
2023/09/25 03:09:22;;;;;;;9.23;6.85;;;;;;;;;;6096756;23;20473;-74
2023/09/25 03:11:48;;;;;;;18.08;7.50;;;;;;;;;;6096029;23;20002;-74
2023/09/25 03:14:13;;;;;;;8.93;6.90;;;;;;;;;;6096327;23;20348;-73
2023/09/25 03:16:42;;;;;;;7.68;6.22;;;;;;;;;;6121822;23;20492;-74
2023/09/25 03:19:07;;;;;;;9.73;6.75;;;;;;;;;;6122269;23;20052;-75
2023/09/25 03:21:33;;;;;;;10.50;7.18;;;;;;;;;;6095861;23;20312;-75
2023/09/25 03:23:59;;;;;;;9.80;6.40;;;;;;;;;;6122640;23;20009;-73
2023/09/25 03:26:24;;;;;;;12.02;6.28;;;;;;;;;;6096434;23;20002;-75
2023/09/25 03:28:50;;;;;;;8.07;6.13;;;;;;;;;;6095751;23;20033;-75
2023/09/25 03:31:16;;;;;;;12.15;6.68;;;;;;;;;;6096061;23;20010;-74
2023/09/25 03:33:45;;;;;;;9.73;6.57;;;;;;;;;;6096110;23;20016;-75
2023/09/25 03:36:11;;;;;;;9.68;6.35;;;;;;;;;;6122321;23;20355;-75
2023/09/25 03:38:37;;;;;;;9.73;6.68;;;;;;;;;;6096125;23;20044;-75
2023/09/25 03:41:03;;;;;;;10.45;7.07;;;;;;;;;;6097016;23;20412;-74
2023/09/25 03:43:28;;;;;;;8.68;6.40;;;;;;;;;;6124541;23;20006;-77
2023/09/25 03:45:54;;;;;;;13.60;7.53;;;;;;;;;;6125313;23;20029;-73
2023/09/25 03:48:20;;;;;;;10.07;6.40;;;;;;;;;;6098367;23;20006;-75
2023/09/25 03:50:45;;;;;;;9.00;6.47;;;;;;;;;;6097418;23;20065;-74
2023/09/25 03:53:11;;;;;;;8.82;6.10;;;;;;;;;;6097864;23;20072;-74
2023/09/25 03:55:38;;;;;;;9.45;6.57;;;;;;;;;;6097382;23;20061;-74
2023/09/25 03:58:04;;;;;;;11.07;6.60;;;;;;;;;;6097982;23;20089;-73
2023/09/25 04:00:29;;;;;;;9.13;6.63;;;;;;;;;;6097718;23;20073;-74
2023/09/25 04:02:55;;;;;;;12.02;6.82;;;;;;;;;;6123422;23;20086;-74
2023/09/25 04:05:21;;;;;;;8.40;5.93;;;;;;;;;;6097221;23;20024;-75
2023/09/25 04:07:46;;;;;;;14.55;6.53;;;;;;;;;;6097673;23;20010;-74
2023/09/25 04:10:12;;;;;;;9.65;6.18;;;;;;;;;;6098865;23;20002;-74
2023/09/25 04:12:38;;;;;;;9.45;5.38;;;;;;;;;;6099392;23;20016;-75
2023/09/25 04:15:10;;;;;;;9.27;6.38;;;;;;;;;;6098541;23;20041;-74
2023/09/25 04:17:36;;;;;;;10.27;6.65;;;;;;;;;;6097657;23;20006;-74
2023/09/25 04:20:07;;;;;;;9.80;6.55;;;;;;;;;;6098043;23;20010;-74
2023/09/25 04:22:37;;;;;;;7.68;6.05;;;;;;;;;;6098163;23;20217;-75
2023/09/25 04:25:08;;;;;;;10.93;6.95;;;;;;;;;;6115888;23;20002;-78
2023/09/25 04:27:33;;;;;;;7.70;6.00;;;;;;;;;;6097809;23;19998;-77
2023/09/25 04:29:59;;;;;;;8.77;6.00;;;;;;;;;;6124614;23;20002;-75
2023/09/25 04:32:24;;;;;;;10.43;6.30;;;;;;;;;;6099692;23;20010;-74
2023/09/25 04:34:50;;;;;;;10.02;6.20;;;;;;;;;;6096890;23;20014;-75
2023/09/25 04:37:16;;;;;;;11.95;6.93;;;;;;;;;;6097837;23;20009;-75
2023/09/25 04:39:42;;;;;;;9.55;6.38;;;;;;;;;;6097305;23;20319;-75
2023/09/25 04:42:09;;;;;;;9.30;6.85;;;;;;;;;;6123808;23;20029;-78
2023/09/25 04:44:35;;;;;;;10.02;6.22;;;;;;;;;;6096843;23;20025;-77
2023/09/25 04:47:00;;;;;;;9.65;5.80;;;;;;;;;;6096542;23;20355;-78
2023/09/25 04:49:26;;;;;;;9.13;6.32;;;;;;;;;;6123617;23;20005;-79
2023/09/25 04:51:51;;;;;;;9.57;6.20;;;;;;;;;;6097873;23;20093;-75
2023/09/25 04:54:17;;;;;;;13.98;7.03;;;;;;;;;;6096228;23;20016;-74
2023/09/25 04:56:42;;;;;;;12.30;6.55;;;;;;;;;;6122938;23;20009;-74
2023/09/25 04:59:08;;;;;;;9.55;6.10;;;;;;;;;;6098671;23;20052;-75
2023/09/25 05:01:33;;;;;;;10.35;6.80;;;;;;;;;;6123634;23;20005;-76
2023/09/25 05:03:59;;;;;;;10.85;7.07;;;;;;;;;;6095726;23;20013;-75
2023/09/25 05:06:26;;;;;;;11.30;6.78;;;;;;;;;;6096946;23;20388;-75
2023/09/25 05:08:51;;;;;;;12.13;6.80;;;;;;;;;;6116362;23;20010;-76
2023/09/25 05:11:17;;;;;;;9.35;6.32;;;;;;;;;;6097347;23;20017;-76
2023/09/25 05:13:42;;;;;;;9.20;6.47;;;;;;;;;;6097153;23;20024;-76
2023/09/25 05:16:08;;;;;;;10.85;6.07;;;;;;;;;;6091271;23;20030;-75
2023/09/25 05:18:35;;;;;;;11.52;7.30;;;;;;;;;;6095055;23;20034;-74
2023/09/25 05:21:01;;;;;;;10.32;6.93;;;;;;;;;;6098340;23;20006;-78
2023/09/25 05:23:26;;;;;;;11.80;7.07;;;;;;;;;;6102763;23;20066;-74
2023/09/25 05:25:58;;;;;;;11.32;7.32;;;;;;;;;;6103747;23;20002;-75
2023/09/25 05:28:24;;;;;;;10.00;6.65;;;;;;;;;;6095678;23;20435;-74
2023/09/25 05:30:53;;;;;;;9.45;6.45;;;;;;;;;;6096947;23;20013;-79
2023/09/25 05:33:20;;;;;;;11.57;7.07;;;;;;;;;;6098040;23;20460;-75
2023/09/25 05:35:46;;;;;;;9.70;6.90;;;;;;;;;;6094784;23;20017;-76
2023/09/25 05:38:12;;;;;;;9.70;7.20;;;;;;;;;;6098582;23;20431;-76
2023/09/25 05:40:39;;;;;;;8.02;6.00;;;;;;;;;;6102569;23;20010;-75
2023/09/25 05:43:04;;;;;;;11.55;8.10;;;;;;;;;;6095051;23;20026;-74
2023/09/25 05:45:31;;;;;;;11.18;6.93;;;;;;;;;;6093684;23;20476;-77
2023/09/25 05:47:57;;;;;;;9.73;6.80;;;;;;;;;;6095654;23;20006;-75
2023/09/25 05:50:25;;;;;;;11.88;6.28;;;;;;;;;;6091054;23;20825;-77
2023/09/25 05:52:51;;;;;;;9.57;8.45;;;;;;;;;;6091118;23;20014;-75
2023/09/25 05:55:28;;;;;;;11.68;7.57;;;;;;;;;;6092448;23;20030;-79
2023/09/25 05:57:55;;;;;;;10.73;7.15;;;;;;;;;;6091603;23;20014;-78
2023/09/25 06:00:22;;;;;;;16.67;7.10;;;;;;;;;;6090677;23;20070;-77
2023/09/25 06:02:48;;;;;;;11.75;7.80;;;;;;;;;;6088232;23;20097;-76
2023/09/25 06:05:15;;;;;;;25.92;9.98;;;;;;;;;;6088697;23;20044;-76
2023/09/25 06:07:42;;;;;;;16.23;8.68;;;;;;;;;;6091254;23;20011;-78
2023/09/25 06:10:08;;;;;;;30.00;9.35;;;;;;;;;;6090028;23;20033;-75
2023/09/25 06:12:35;;;;;;;14.43;6.93;;;;;;;;;;6082372;23;20014;-75
2023/09/25 06:15:01;;;;;;;15.90;7.88;;;;;;;;;;6098317;23;20029;-76
2023/09/25 06:17:26;;;;;;;11.88;7.43;;;;;;;;;;6120596;23;19998;-77
2023/09/25 06:19:53;;;;;;;18.88;8.05;;;;;;;;;;6121621;23;20010;-78
2023/09/25 06:22:21;;;;;;;19.38;8.57;;;;;;;;;;6121805;23;20002;-77
2023/09/25 06:24:48;;;;;;;10.32;6.90;;;;;;;;;;6094540;23;20020;-77
2023/09/25 06:27:13;;;;;;;10.25;7.30;;;;;;;;;;6098607;23;20013;-78
2023/09/25 06:29:39;;;;;;;13.18;7.32;;;;;;;;;;6135809;23;20069;-77
2023/09/25 06:32:04;;;;;;;10.98;7.93;;;;;;;;;;6133823;23;20249;-78
2023/09/25 06:34:30;;;;;;;12.20;7.78;;;;;;;;;;6124337;23;20010;-77
2023/09/25 06:36:55;;;;;;;9.68;6.57;;;;;;;;;;6096619;23;20356;-76
2023/09/25 06:39:23;;;;;;;10.43;7.35;;;;;;;;;;6094316;23;20014;-74
2023/09/25 06:41:48;;;;;;;11.85;7.18;;;;;;;;;;6118525;23;20006;-74
2023/09/25 06:44:14;;;;;;;16.08;7.80;;;;;;;;;;6093475;23;20010;-76
2023/09/25 06:46:40;;;;;;;10.80;7.55;;;;;;;;;;6094576;23;20002;-75
2023/09/25 06:49:06;;;;;;;11.90;8.77;;;;;;;;;;6119698;23;20010;-76
2023/09/25 06:51:31;;;;;;;16.67;8.00;;;;;;;;;;6095017;23;20148;-77
2023/09/25 06:53:57;;;;;;;10.88;7.55;;;;;;;;;;6119998;23;20636;-77
2023/09/25 06:56:23;;;;;;;14.15;8.77;;;;;;;;;;6120560;23;20432;-76
2023/09/25 06:58:48;;;;;;;9.88;7.35;;;;;;;;;;6096396;23;20089;-78
2023/09/25 07:01:14;;;;;;;14.18;7.95;;;;;;;;;;6121940;23;20001;-79
2023/09/25 07:04:44;;;;;;;11.68;7.32;;;;;;;;;;6102107;23;20085;-81
2023/09/25 07:07:11;;;;;;;13.35;8.40;;;;;;;;;;6118421;23;20093;-78
2023/09/25 07:09:37;;;;;;;12.50;8.35;;;;;;;;;;6126065;23;20453;-74
2023/09/25 07:12:05;;;;;;;14.05;7.90;;;;;;;;;;6101679;23;20017;-76
2023/09/25 07:14:30;;;;;;;13.70;7.88;;;;;;;;;;6130089;23;20073;-81
2023/09/25 07:16:57;;;;;;;11.27;8.00;;;;;;;;;;6131781;23;20053;-77
2023/09/25 07:19:23;;;;;;;10.05;7.43;;;;;;;;;;6129083;23;20356;-78
2023/09/25 07:21:50;;;;;;;13.35;8.30;;;;;;;;;;6133924;23;20002;-77
2023/09/25 07:24:18;;;;;;;12.50;8.48;;;;;;;;;;6099814;23;20427;-76
2023/09/25 07:26:44;;;;;;;14.35;7.65;;;;;;;;;;6075257;23;20121;-75
2023/09/25 07:29:36;;;;;;;;;;;;;;;;;;;;;
2023/09/25 07:32:05;;;;;;;12.07;8.13;;;;;;;;;;6109586;23;20485;-77
2023/09/25 07:34:32;;;;;;;16.80;9.00;;;;;;;;;;6122814;23;20024;-78
2023/09/25 07:36:57;;;;;;;16.85;8.38;;;;;;;;;;6118509;23;20100;-77
2023/09/25 07:39:25;;;;;;;12.98;8.40;;;;;;;;;;6090663;23;20033;-76
2023/09/25 07:41:52;;;;;;;15.75;7.47;;;;;;;;;;6092297;23;20455;-79
2023/09/25 07:44:18;;;;;;;12.40;7.78;;;;;;;;;;6088477;23;20037;-77
2023/09/25 07:46:44;;;;;;;13.13;7.95;;;;;;;;;;6091247;23;20010;-76
2023/09/25 07:49:11;;;;;;;9.10;7.20;;;;;;;;;;6089815;23;20069;-77
2023/09/25 07:51:38;;;;;;;15.93;8.73;;;;;;;;;;6119543;23;20502;-78
2023/09/25 07:54:04;;;;;;;18.25;8.40;;;;;;;;;;6090074;23;20006;-81
2023/09/25 07:56:30;;;;;;;12.00;8.50;;;;;;;;;;6091495;23;20029;-77
2023/09/25 07:58:56;;;;;;;11.93;7.65;;;;;;;;;;6090481;23;20037;-78
2023/09/25 08:01:29;;;;;;;9.80;7.75;;;;;;;;;;6093245;23;20069;-80
2023/09/25 08:03:55;;;;;;;12.60;7.88;;;;;;;;;;6088456;23;20005;-77
2023/09/25 08:06:24;;;;;;;11.38;7.80;;;;;;;;;;6114935;23;20006;-76
2023/09/25 08:08:57;;;;;;;10.40;7.80;;;;;;;;;;6079495;23;20033;-78
2023/09/25 08:11:24;;;;;;;15.50;8.45;;;;;;;;;;6113311;23;20014;-78
2023/09/25 08:13:53;;;;;;;14.68;8.27;;;;;;;;;;6107915;23;20014;-76
2023/09/25 08:16:21;;;;;;;11.43;7.68;;;;;;;;;;6055529;23;20037;-76
2023/09/25 08:18:47;;;;;;;12.82;8.65;;;;;;;;;;6053035;23;20011;-78
2023/09/25 08:21:14;;;;;;;12.73;8.68;;;;;;;;;;6055311;23;20007;-76
2023/09/25 08:23:40;;;;;;;8.95;7.47;;;;;;;;;;6052435;23;20037;-79
2023/09/25 08:26:06;;;;;;;19.45;7.95;;;;;;;;;;6052540;23;20007;-78
2023/09/25 08:28:32;;;;;;;16.75;8.60;;;;;;;;;;6031460;23;20025;-77
2023/09/25 08:30:58;;;;;;;11.38;7.47;;;;;;;;;;6055848;23;20077;-76
2023/09/25 08:33:23;;;;;;;13.13;7.93;;;;;;;;;;6058318;23;20014;-78
2023/09/25 08:35:49;;;;;;;10.27;7.28;;;;;;;;;;6054028;23;20015;-80
2023/09/25 08:38:15;;;;;;;14.25;9.38;;;;;;;;;;6031974;23;20026;-79
2023/09/25 08:40:47;;;;;;;12.40;8.23;;;;;;;;;;6059332;23;20398;-80
2023/09/25 08:43:13;;;;;;;10.80;7.75;;;;;;;;;;6065381;23;20003;-80
2023/09/25 08:45:41;;;;;;;11.82;8.00;;;;;;;;;;6075404;23;20026;-77
2023/09/25 08:48:12;;;;;;;12.23;7.85;;;;;;;;;;6077084;23;20007;-77
2023/09/25 08:50:39;;;;;;;9.85;8.10;;;;;;;;;;6065051;23;20440;-78
2023/09/25 08:53:09;;;;;;;12.52;8.43;;;;;;;;;;6057472;23;20066;-78
2023/09/25 08:55:38;;;;;;;9.02;8.10;;;;;;;;;;6046075;23;20015;-77
2023/09/25 08:58:08;;;;;;;10.38;8.35;;;;;;;;;;6055863;23;20033;-76
2023/09/25 09:00:34;;;;;;;11.10;8.52;;;;;;;;;;6055502;23;20010;-80
2023/09/25 09:03:00;;;;;;;12.07;8.50;;;;;;;;;;6058823;23;20002;-76
2023/09/25 09:05:26;;;;;;;16.92;9.07;;;;;;;;;;6059141;23;20006;-81
2023/09/25 09:08:03;;;;;;;11.63;7.53;;;;;;;;;;6059405;23;20014;-78
2023/09/25 09:10:31;;;;;;;12.32;7.90;;;;;;;;;;6056571;23;20082;-76
2023/09/25 09:12:58;;;;;;;11.15;7.80;;;;;;;;;;6060023;23;20010;-77
2023/09/25 09:15:28;;;;;;;8.95;7.65;;;;;;;;;;6084752;23;20038;-79
2023/09/25 09:17:57;;;;;;;11.88;8.82;;;;;;;;;;6123776;23;20077;-80
2023/09/25 09:20:36;;;;;;;11.60;8.48;;;;;;;;;;6125935;23;20022;-77
2023/09/25 09:23:02;;;;;;;12.85;9.35;;;;;;;;;;6110803;23;20013;-80
2023/09/25 09:25:31;;;;;;;14.40;9.43;;;;;;;;;;6083680;23;20076;-79
2023/09/25 09:28:05;;;;;;;14.65;8.45;;;;;;;;;;6100851;23;20001;-79
2023/09/25 09:30:32;;;;;;;15.73;9.00;;;;;;;;;;6089897;23;20021;-79
2023/09/25 09:32:58;;;;;;;14.18;8.45;;;;;;;;;;6115644;23;20010;-79
2023/09/25 09:35:27;;;;;;;15.52;9.45;;;;;;;;;;6087413;23;20001;-78
2023/09/25 09:37:54;;;;;;;13.75;8.77;;;;;;;;;;6118423;23;20073;-80
2023/09/25 09:40:27;;;;;;;11.70;9.10;;;;;;;;;;6066777;23;20073;-79
2023/09/25 09:42:54;;;;;;;17.90;9.23;;;;;;;;;;6094421;23;20400;-78
2023/09/25 09:45:21;;;;;;;14.93;9.43;;;;;;;;;;6091015;23;20002;-78
2023/09/25 09:47:47;;;;;;;16.17;9.80;;;;;;;;;;6116026;23;20096;-79
2023/09/25 09:50:18;;;;;;;14.30;9.18;;;;;;;;;;6088550;23;20112;-80
2023/09/25 09:52:45;;;;;;;13.35;9.00;;;;;;;;;;6091333;23;20101;-82
2023/09/25 09:55:13;;;;;;;16.08;8.93;;;;;;;;;;6066094;23;20569;-76
2023/09/25 09:57:39;;;;;;;14.35;8.85;;;;;;;;;;6093325;23;20077;-83
2023/09/25 10:00:18;;;;;;;18.63;9.77;;;;;;;;;;6069128;23;20443;-80
2023/09/25 10:02:45;;;;;;;10.60;9.32;;;;;;;;;;6117771;23;20088;-78
2023/09/25 10:05:15;;;;;;;14.88;9.93;;;;;;;;;;6112372;23;20080;-77
2023/09/25 10:08:05;;;;;;;13.10;8.68;;;;;;;;;;6090271;23;20010;-79
2023/09/25 10:10:32;;;;;;;12.10;9.75;;;;;;;;;;6118277;23;20002;-80
2023/09/25 10:12:58;;;;;;;17.23;8.57;;;;;;;;;;6091773;23;20568;-78
2023/09/25 10:15:25;;;;;;;14.38;9.02;;;;;;;;;;6088308;23;20021;-79
2023/09/25 10:17:52;;;;;;;14.63;9.07;;;;;;;;;;6116840;23;20052;-81
2023/09/25 10:20:45;;;;;;;12.07;9.23;;;;;;;;;;6117567;23;20017;-79
2023/09/25 10:23:21;;;;;;;15.30;8.57;;;;;;;;;;6118120;23;20001;-78
2023/09/25 10:25:52;;;;;;;13.32;8.68;;;;;;;;;;6091134;23;20006;-82
2023/09/25 10:28:30;;;;;;;16.98;9.00;;;;;;;;;;6122440;23;20009;-81
2023/09/25 10:31:01;;;;;;;16.17;8.82;;;;;;;;;;6120456;23;20014;-80
2023/09/25 10:33:37;;;;;;;11.88;8.68;;;;;;;;;;6096926;23;20368;-79
2023/09/25 10:36:06;;;;;;;11.90;8.30;;;;;;;;;;6104165;23;20510;-77
2023/09/25 10:38:36;;;;;;;11.60;8.52;;;;;;;;;;6130222;23;20010;-78
2023/09/25 10:41:07;;;;;;;14.15;9.02;;;;;;;;;;6136377;23;20010;-80
2023/09/25 10:43:34;;;;;;;12.13;7.68;;;;;;;;;;6099124;23;20069;-76
2023/09/25 10:46:01;;;;;;;12.52;8.15;;;;;;;;;;6089631;23;20018;-76
2023/09/25 10:48:27;;;;;;;13.02;8.30;;;;;;;;;;6091611;23;20009;-76
2023/09/25 10:50:56;;;;;;;13.02;8.45;;;;;;;;;;6091206;23;20591;-80
2023/09/25 10:53:23;;;;;;;11.63;8.38;;;;;;;;;;6092085;23;20363;-83
2023/09/25 10:55:49;;;;;;;12.95;8.05;;;;;;;;;;6088451;23;20013;-79
2023/09/25 10:58:15;;;;;;;14.52;8.13;;;;;;;;;;6119178;23;20089;-77
2023/09/25 11:00:42;;;;;;;11.93;8.02;;;;;;;;;;6117934;23;20008;-75
2023/09/25 11:03:08;;;;;;;10.93;7.47;;;;;;;;;;6094227;23;20006;-79
2023/09/25 11:05:38;;;;;;;11.07;7.82;;;;;;;;;;6124305;23;20010;-78
2023/09/25 11:08:06;;;;;;;10.18;7.60;;;;;;;;;;6105788;23;19990;-79
2023/09/25 11:10:41;;;;;;;10.50;7.68;;;;;;;;;;6133515;23;20009;-77
2023/09/25 11:13:06;;;;;;;10.35;7.47;;;;;;;;;;6092741;23;20009;-78
2023/09/25 11:15:38;;;;;;;11.85;7.57;;;;;;;;;;6082478;23;20032;-76
2023/09/25 11:18:08;;;;;;;11.13;7.43;;;;;;;;;;6086348;23;20014;-79
2023/09/25 11:20:34;;;;;;;11.25;8.05;;;;;;;;;;6090636;23;20002;-77
2023/09/25 11:23:14;;;;;;;10.55;7.68;;;;;;;;;;6091595;23;20002;-79
2023/09/25 11:25:53;;;;;;;13.50;7.88;;;;;;;;;;6113083;23;20014;-79
2023/09/25 11:28:22;;;;;;;9.85;7.53;;;;;;;;;;6098243;23;20014;-82
2023/09/25 11:30:50;;;;;;;12.40;7.75;;;;;;;;;;6099283;23;20283;-81
2023/09/25 11:33:22;;;;;;;15.73;8.40;;;;;;;;;;6095899;23;20010;-81
2023/09/25 11:35:55;;;;;;;10.98;7.70;;;;;;;;;;6070716;23;20146;-83
2023/09/25 11:38:28;;;;;;;9.55;7.03;;;;;;;;;;6103871;23;20016;-79
2023/09/25 11:41:00;;;;;;;16.27;7.95;;;;;;;;;;6097446;23;20502;-82
2023/09/25 11:43:28;;;;;;;12.95;7.38;;;;;;;;;;6094731;23;20010;-77
2023/09/25 11:45:59;;;;;;;9.13;6.88;;;;;;;;;;6117180;23;20014;-79
2023/09/25 11:48:26;;;;;;;8.63;6.60;;;;;;;;;;6097654;23;20010;-78
2023/09/25 11:50:53;;;;;;;12.90;7.70;;;;;;;;;;6097639;23;20376;-79
2023/09/25 11:53:19;;;;;;;8.85;6.45;;;;;;;;;;6099997;23;20344;-80
2023/09/25 11:55:48;;;;;;;9.55;6.53;;;;;;;;;;6093597;23;20102;-82
2023/09/25 11:58:15;;;;;;;7.72;6.07;;;;;;;;;;6098525;23;20446;-80
2023/09/25 12:00:41;;;;;;;8.93;5.55;;;;;;;;;;6100734;23;20006;-82
2023/09/25 12:03:11;;;;;;;8.27;5.78;;;;;;;;;;6100720;23;20346;-81
2023/09/25 12:05:38;;;;;;;14.35;7.70;;;;;;;;;;6083977;23;20553;-80
2023/09/25 12:08:06;;;;;;;10.20;6.75;;;;;;;;;;6093485;23;20038;-81
2023/09/25 12:10:37;;;;;;;10.07;5.57;;;;;;;;;;6090889;23;20026;-78
2023/09/25 12:13:07;;;;;;;8.95;5.70;;;;;;;;;;6069354;23;20698;-78
2023/09/25 12:15:33;;;;;;;7.03;5.55;;;;;;;;;;6105772;23;20025;-79
2023/09/25 12:17:58;;;;;;;8.60;5.80;;;;;;;;;;6098067;23;20037;-77
2023/09/25 12:20:25;;;;;;;9.88;5.60;;;;;;;;;;6096964;23;20002;-81
2023/09/25 12:22:54;;;;;;;11.30;6.13;;;;;;;;;;6101527;23;20017;-78
2023/09/25 12:25:22;;;;;;;11.50;5.70;;;;;;;;;;6120887;23;20017;-77
2023/09/25 12:27:48;;;;;;;9.40;5.82;;;;;;;;;;6123900;23;20434;-81
2023/09/25 12:30:15;;;;;;;8.00;5.00;;;;;;;;;;6097182;23;20034;-81
2023/09/25 12:32:47;;;;;;;9.70;4.82;;;;;;;;;;6094565;23;20035;-79
2023/09/25 12:35:15;;;;;;;4.53;3.67;;;;;;;;;;6124639;23;20002;-80
2023/09/25 12:37:45;;;;;;;6.97;4.60;;;;;;;;;;6098969;23;20034;-78
2023/09/25 12:40:15;;;;;;;5.83;4.87;;;;;;;;;;6122548;23;20014;-79
2023/09/25 12:42:42;;;;;;;7.18;4.50;;;;;;;;;;6126708;23;20010;-78
2023/09/25 12:45:11;;;;;;;8.43;4.38;;;;;;;;;;6100084;23;20153;-80
2023/09/25 12:47:37;;;;;;;11.40;6.30;;;;;;;;;;6099782;23;20005;-78
2023/09/25 12:50:04;;;;;;;9.00;4.93;;;;;;;;;;6118428;23;20128;-76
2023/09/25 12:52:31;;;;;;;12.88;5.35;;;;;;;;;;6097874;23;20041;-77
2023/09/25 12:54:59;;;;;;;6.20;4.05;;;;;;;;;;6116258;23;20009;-80
2023/09/25 12:57:25;;;;;;;6.38;4.03;;;;;;;;;;6092029;23;20021;-78
2023/09/25 12:59:52;;;;;;;6.30;4.18;;;;;;;;;;6090002;23;20016;-78
2023/09/25 13:02:18;;;;;;;6.68;3.92;;;;;;;;;;6118803;23;20002;-81
2023/09/25 13:04:44;;;;;;;4.82;4.15;;;;;;;;;;6091605;23;20013;-78
2023/09/25 13:07:10;;;;;;;7.28;4.40;;;;;;;;;;6096619;23;20017;-82
2023/09/25 13:09:35;;;;;;;9.52;4.57;;;;;;;;;;6098187;23;20039;-84
2023/09/25 13:12:04;;;;;;;5.40;4.38;;;;;;;;;;6095976;23;20149;-77
2023/09/25 13:14:30;;;;;;;4.43;3.58;;;;;;;;;;6116311;23;20009;-82
2023/09/25 13:16:59;;;;;;;4.78;4.20;;;;;;;;;;6103448;23;20283;-80
2023/09/25 13:19:25;;;;;;;5.80;3.40;;;;;;;;;;6100582;23;20092;-82
2023/09/25 13:21:51;;;;;;;9.57;3.88;;;;;;;;;;6099584;23;20266;-81
2023/09/25 13:24:17;;;;;;;6.25;3.90;;;;;;;;;;6098942;23;20002;-81
2023/09/25 13:26:43;;;;;;;4.38;3.33;;;;;;;;;;6106785;23;20010;-78
2023/09/25 13:29:09;;;;;;;8.75;3.65;;;;;;;;;;6121081;23;20090;-76
2023/09/25 13:31:35;;;;;;;4.57;3.70;;;;;;;;;;6145411;23;19994;-79
2023/09/25 13:34:04;;;;;;;7.47;3.88;;;;;;;;;;6143655;23;20029;-77
2023/09/25 13:36:32;;;;;;;17.25;4.72;;;;;;;;;;6115732;23;20006;-79
2023/09/25 13:38:58;;;;;;;9.73;3.60;;;;;;;;;;6130476;23;20032;-81
2023/09/25 13:41:25;;;;;;;7.22;3.17;;;;;;;;;;6133257;23;20037;-84
2023/09/25 13:43:50;;;;;;;5.78;3.95;;;;;;;;;;6103183;23;20362;-83
2023/09/25 13:46:17;;;;;;;4.63;3.25;;;;;;;;;;6099788;23;20097;-79
2023/09/25 13:48:43;;;;;;;7.50;3.75;;;;;;;;;;6137059;23;20002;-78
2023/09/25 13:51:11;;;;;;;5.75;3.75;;;;;;;;;;6134580;23;20008;-82
2023/09/25 13:53:37;;;;;;;3.28;2.97;;;;;;;;;;6104921;23;20021;-81
2023/09/25 13:56:04;;;;;;;6.28;3.47;;;;;;;;;;6102867;23;20009;-86
2023/09/25 13:58:31;;;;;;;27.75;6.25;;;;;;;;;;6125873;23;20001;-79
2023/09/25 14:01:05;;;;;;;4.43;3.42;;;;;;;;;;6118966;23;20006;-88
2023/09/25 14:03:31;;;;;;;8.88;3.85;;;;;;;;;;6069702;23;20470;-81
2023/09/25 14:06:05;;;;;;;9.77;4.53;;;;;;;;;;6068312;23;20018;-81
2023/09/25 14:08:33;;;;;;;7.78;3.42;;;;;;;;;;6091763;23;20045;-80
2023/09/25 14:11:00;;;;;;;6.47;3.28;;;;;;;;;;6085456;23;20005;-80
2023/09/25 14:13:29;;;;;;;5.88;3.25;;;;;;;;;;6089015;23;20002;-85
2023/09/25 14:15:55;;;;;;;8.00;3.25;;;;;;;;;;6088093;23;20018;-79
2023/09/25 14:18:23;;;;;;;6.32;3.78;;;;;;;;;;6093097;23;20017;-80
2023/09/25 14:20:49;;;;;;;6.30;3.75;;;;;;;;;;6118474;23;20612;-81
2023/09/25 14:23:15;;;;;;;7.50;3.95;;;;;;;;;;6118495;23;19994;-82
2023/09/25 14:25:43;;;;;;;5.35;3.90;;;;;;;;;;6094156;23;20017;-79
2023/09/25 14:28:09;;;;;;;7.95;3.88;;;;;;;;;;6095887;23;20152;-80
2023/09/25 14:30:36;;;;;;;9.15;3.35;;;;;;;;;;6122930;23;20010;-80
2023/09/25 14:33:02;;;;;;;7.28;4.35;;;;;;;;;;6098000;23;20010;-82
2023/09/25 14:35:27;;;;;;;4.85;3.97;;;;;;;;;;6100486;23;20060;-81
2023/09/25 14:38:02;;;;;;;29.33;6.53;;;;;;;;;;6127511;23;20095;-81